createdAt,value
2024-02-19T00:00:52.126Z,7.64
2024-02-19T00:03:19.340Z,7.60
2024-02-19T00:05:46.622Z,7.63
2024-02-19T00:08:13.587Z,7.77
2024-02-19T00:10:40.214Z,7.72
2024-02-19T00:13:07.230Z,7.73
2024-02-19T00:15:33.898Z,7.78
2024-02-19T00:18:00.628Z,7.78
2024-02-19T00:20:27.408Z,7.78
2024-02-19T00:22:53.983Z,7.73
2024-02-19T00:25:20.649Z,7.79
2024-02-19T00:27:50.507Z,7.76
2024-02-19T00:30:17.682Z,7.86
2024-02-19T00:32:44.354Z,7.83
2024-02-19T00:35:11.604Z,7.85
2024-02-19T00:37:39.022Z,7.89
2024-02-19T00:40:06.361Z,7.94
2024-02-19T00:42:33.076Z,7.85
2024-02-19T00:45:00.067Z,7.91
2024-02-19T00:47:26.684Z,7.97
2024-02-19T00:49:53.426Z,7.95
2024-02-19T00:52:20.136Z,7.95
2024-02-19T00:54:47.147Z,8.03
2024-02-19T00:57:13.750Z,8.08
2024-02-19T00:59:40.707Z,8.08
2024-02-19T01:02:07.379Z,8.01
2024-02-19T01:04:34.455Z,8.07
2024-02-19T01:07:01.175Z,8.09
2024-02-19T01:09:28.120Z,8.11
2024-02-19T01:11:54.653Z,8.11
2024-02-19T01:14:21.234Z,8.11
2024-02-19T01:16:47.927Z,8.01
2024-02-19T01:19:14.759Z,8.13
2024-02-19T01:21:41.743Z,8.09
2024-02-19T01:24:09.693Z,8.01
2024-02-19T01:26:36.909Z,8.12
2024-02-19T01:29:03.827Z,8.10
2024-02-19T01:31:30.604Z,8.03
2024-02-19T01:33:57.362Z,8.03
2024-02-19T01:36:24.119Z,8.12
2024-02-19T01:38:50.804Z,8.11
2024-02-19T01:41:17.461Z,8.10
2024-02-19T01:43:44.592Z,8.12
2024-02-19T01:46:12.130Z,8.12
2024-02-19T01:48:39.218Z,7.98
2024-02-19T01:51:06.116Z,8.03
2024-02-19T01:53:32.840Z,7.84
2024-02-19T01:56:00.007Z,8.04
2024-02-19T01:58:27.472Z,7.91
2024-02-19T02:00:54.700Z,8.08
2024-02-19T02:03:22.855Z,8.07
2024-02-19T02:05:50.240Z,7.92
2024-02-19T02:08:17.742Z,8.04
2024-02-19T02:10:44.442Z,7.99
2024-02-19T02:13:11.216Z,8.02
2024-02-19T02:15:38.051Z,8.08
2024-02-19T02:18:05.097Z,7.96
2024-02-19T02:20:32.789Z,8.12
2024-02-19T02:23:00.096Z,8.04
2024-02-19T02:25:26.883Z,7.89
2024-02-19T02:27:53.969Z,7.95
2024-02-19T02:30:20.704Z,7.78
2024-02-19T02:32:47.675Z,7.84
2024-02-19T02:35:16.502Z,7.65
2024-02-19T02:37:43.291Z,7.57
2024-02-19T02:40:10.566Z,7.51
2024-02-19T02:42:37.309Z,7.35
2024-02-19T02:45:05.188Z,7.44
2024-02-19T02:47:31.925Z,7.42
2024-02-19T02:49:58.599Z,7.38
2024-02-19T02:52:25.317Z,7.32
2024-02-19T02:54:52.026Z,7.33
2024-02-19T02:57:18.861Z,7.32
2024-02-19T02:59:45.834Z,7.28
2024-02-19T03:02:12.515Z,7.24
2024-02-19T03:04:39.261Z,7.20
2024-02-19T03:07:05.992Z,7.29
2024-02-19T03:09:33.077Z,7.24
2024-02-19T03:11:59.725Z,7.18
2024-02-19T03:14:26.765Z,7.24
2024-02-19T03:16:53.414Z,7.18
2024-02-19T03:19:21.864Z,7.15
2024-02-19T03:21:48.695Z,7.23
2024-02-19T03:24:15.798Z,7.20
2024-02-19T03:26:43.446Z,7.17
2024-02-19T03:29:16.184Z,7.18
2024-02-19T03:31:43.986Z,7.15
2024-02-19T03:34:11.625Z,7.12
2024-02-19T03:36:38.667Z,7.07
2024-02-19T03:39:06.237Z,7.08
2024-02-19T03:41:33.645Z,7.01
2024-02-19T03:44:00.942Z,6.98
2024-02-19T03:46:28.025Z,6.85
2024-02-19T03:48:57.923Z,6.94
2024-02-19T03:51:24.893Z,6.91
2024-02-19T03:53:51.977Z,6.82
2024-02-19T03:56:19.311Z,6.72
2024-02-19T03:58:46.179Z,6.81
2024-02-19T04:01:13.307Z,6.76
2024-02-19T04:03:40.196Z,6.70
2024-02-19T04:06:07.749Z,6.66
2024-02-19T04:08:34.518Z,6.65
2024-02-19T04:11:01.348Z,6.62
2024-02-19T04:13:28.101Z,6.49
2024-02-19T04:15:58.226Z,6.62
2024-02-19T04:18:25.177Z,6.62
2024-02-19T04:20:52.067Z,6.52
2024-02-19T04:23:20.954Z,6.47
2024-02-19T04:25:49.437Z,6.37
2024-02-19T04:28:16.249Z,6.45
2024-02-19T04:30:43.163Z,6.42
2024-02-19T04:33:11.021Z,6.28
2024-02-19T04:35:37.845Z,6.38
2024-02-19T04:38:04.745Z,6.25
2024-02-19T04:40:31.553Z,6.30
2024-02-19T04:42:58.515Z,6.28
2024-02-19T04:45:25.209Z,6.24
2024-02-19T04:47:52.280Z,6.23
2024-02-19T04:50:19.481Z,6.15
2024-02-19T04:52:46.310Z,6.20
2024-02-19T04:55:13.092Z,6.20
2024-02-19T04:57:39.938Z,6.18
2024-02-19T05:00:07.343Z,6.06
2024-02-19T05:02:34.393Z,6.10
2024-02-19T05:05:01.216Z,6.06
2024-02-19T05:07:28.367Z,6.01
2024-02-19T05:09:56.278Z,5.99
2024-02-19T05:12:23.438Z,5.92
2024-02-19T05:14:50.516Z,5.84
2024-02-19T05:17:17.181Z,6.00
2024-02-19T05:19:44.640Z,5.94
2024-02-19T05:22:11.497Z,5.96
2024-02-19T05:24:38.652Z,6.01
2024-02-19T05:27:05.623Z,5.97
2024-02-19T05:29:32.700Z,5.98
2024-02-19T05:32:01.206Z,5.88
2024-02-19T05:34:28.321Z,6.03
2024-02-19T05:36:55.226Z,6.00
2024-02-19T05:39:22.397Z,5.99
2024-02-19T05:41:49.134Z,5.97
2024-02-19T05:44:16.261Z,5.95
2024-02-19T05:46:44.631Z,5.98
2024-02-19T05:49:19.242Z,5.99
2024-02-19T05:51:45.961Z,6.03
2024-02-19T05:54:13.084Z,6.02
2024-02-19T05:56:39.746Z,5.99
2024-02-19T05:59:06.545Z,6.01
2024-02-19T06:01:33.383Z,6.03
2024-02-19T06:04:00.604Z,5.93
2024-02-19T06:06:27.396Z,6.01
2024-02-19T06:08:54.287Z,6.03
2024-02-19T06:11:22.316Z,6.03
2024-02-19T06:13:49.886Z,5.98
2024-02-19T06:16:17.215Z,6.04
2024-02-19T06:18:44.500Z,6.06
2024-02-19T06:21:11.194Z,6.04
2024-02-19T06:23:37.932Z,5.98
2024-02-19T06:26:05.237Z,5.98
2024-02-19T06:28:31.980Z,6.04
2024-02-19T06:30:58.659Z,6.08
2024-02-19T06:33:25.622Z,6.10
2024-02-19T06:35:52.385Z,6.07
2024-02-19T06:38:19.097Z,6.13
2024-02-19T06:40:46.187Z,6.13
2024-02-19T06:43:12.900Z,6.19
2024-02-19T06:45:39.725Z,6.20
2024-02-19T06:48:06.935Z,6.12
2024-02-19T06:50:33.990Z,6.15
2024-02-19T06:53:00.685Z,6.10
2024-02-19T06:55:27.978Z,6.24
2024-02-19T06:57:54.813Z,6.22
2024-02-19T07:00:22.813Z,6.17
2024-02-19T07:02:49.682Z,6.18
2024-02-19T07:05:16.828Z,6.07
2024-02-19T07:07:43.660Z,6.07
2024-02-19T07:10:10.489Z,6.16
2024-02-19T07:12:37.296Z,6.04
2024-02-19T07:15:04.566Z,6.13
2024-02-19T07:17:31.991Z,6.11
2024-02-19T07:20:00.181Z,6.12
2024-02-19T07:22:27.600Z,6.01
2024-02-19T07:25:03.035Z,6.19
2024-02-19T07:27:37.232Z,6.22
2024-02-19T07:30:04.863Z,6.14
2024-02-19T07:32:32.052Z,6.24
2024-02-19T07:34:58.809Z,6.20
2024-02-19T07:37:26.041Z,6.31
2024-02-19T07:39:52.836Z,6.30
2024-02-19T07:42:20.299Z,6.32
2024-02-19T07:44:46.979Z,6.31
2024-02-19T07:47:13.715Z,6.35
2024-02-19T07:49:40.494Z,6.34
2024-02-19T07:52:07.726Z,6.27
2024-02-19T07:54:34.503Z,6.27
2024-02-19T07:57:01.286Z,6.34
2024-02-19T07:59:28.567Z,6.36
2024-02-19T08:01:55.436Z,6.17
2024-02-19T08:04:28.388Z,6.19
2024-02-19T08:06:58.509Z,6.31
2024-02-19T08:09:27.434Z,6.31
2024-02-19T08:11:54.475Z,6.29
2024-02-19T08:14:21.281Z,6.26
2024-02-19T08:16:50.097Z,6.33
2024-02-19T08:19:17.583Z,6.38
2024-02-19T08:21:44.469Z,6.34
2024-02-19T08:24:11.482Z,6.37
2024-02-19T08:26:38.210Z,6.42
2024-02-19T08:29:05.725Z,6.50
2024-02-19T08:31:35.028Z,6.54
2024-02-19T08:34:02.337Z,6.59
2024-02-19T08:36:29.151Z,6.68
2024-02-19T08:38:56.907Z,6.66
2024-02-19T08:41:23.745Z,6.69
2024-02-19T08:43:51.321Z,6.73
2024-02-19T08:46:18.146Z,6.74
2024-02-19T08:48:45.038Z,6.73
2024-02-19T08:51:12.537Z,6.82
2024-02-19T08:53:39.201Z,6.78
2024-02-19T08:56:06.068Z,6.80
2024-02-19T08:58:33.510Z,6.79
2024-02-19T09:01:01.196Z,6.82
2024-02-19T09:03:28.187Z,6.93
2024-02-19T09:05:55.035Z,6.94
2024-02-19T09:08:21.857Z,6.97
2024-02-19T09:10:48.821Z,6.93
2024-02-19T09:13:15.630Z,6.98
2024-02-19T09:15:42.368Z,7.04
2024-02-19T09:18:09.248Z,7.11
2024-02-19T09:20:36.097Z,7.20
2024-02-19T09:23:03.496Z,7.10
2024-02-19T09:25:30.609Z,7.13
2024-02-19T09:27:57.687Z,7.17
2024-02-19T09:30:25.202Z,7.21
2024-02-19T09:32:52.213Z,7.18
2024-02-19T09:35:19.754Z,7.08
2024-02-19T09:37:49.572Z,7.35
2024-02-19T09:40:18.086Z,7.41
2024-02-19T09:42:49.085Z,7.45
2024-02-19T09:45:16.309Z,7.48
2024-02-19T09:47:47.007Z,7.60
2024-02-19T09:50:17.101Z,7.76
2024-02-19T09:52:45.665Z,7.62
2024-02-19T09:55:15.913Z,7.79
2024-02-19T09:57:42.950Z,7.69
2024-02-19T10:00:11.351Z,7.98
2024-02-19T10:02:39.883Z,8.01
2024-02-19T10:05:13.313Z,8.08
2024-02-19T10:07:41.075Z,8.14
2024-02-19T10:10:10.427Z,8.31
2024-02-19T10:12:37.172Z,8.36
2024-02-19T10:15:07.301Z,8.47
2024-02-19T10:17:34.048Z,8.57
2024-02-19T10:20:02.585Z,8.74
2024-02-19T10:22:29.284Z,8.80
2024-02-19T10:24:56.392Z,8.85
2024-02-19T10:27:23.580Z,8.76
2024-02-19T10:29:50.416Z,8.74
2024-02-19T10:32:17.127Z,8.59
2024-02-19T10:34:44.196Z,8.61
2024-02-19T10:37:11.271Z,8.64
2024-02-19T10:39:38.328Z,8.80
2024-02-19T10:42:05.666Z,8.93
2024-02-19T10:44:34.528Z,9.02
2024-02-19T10:47:02.332Z,9.03
2024-02-19T10:49:29.066Z,9.05
2024-02-19T10:51:57.867Z,8.93
2024-02-19T10:54:24.890Z,9.05
2024-02-19T10:56:53.167Z,9.13
2024-02-19T10:59:19.974Z,9.09
2024-02-19T11:01:51.106Z,9.02
2024-02-19T11:04:18.452Z,9.19
2024-02-19T11:06:57.835Z,9.15
2024-02-19T11:09:35.611Z,9.15
2024-02-19T11:12:04.321Z,9.20
2024-02-19T11:14:34.305Z,9.09
2024-02-19T11:17:02.434Z,9.09
2024-02-19T11:19:31.062Z,9.23
2024-02-19T11:22:11.476Z,9.30
2024-02-19T11:24:39.629Z,9.42
2024-02-19T11:27:07.150Z,9.40
2024-02-19T11:29:43.420Z,9.50
2024-02-19T11:32:20.487Z,9.64
2024-02-19T11:34:48.773Z,9.67
2024-02-19T11:37:16.173Z,9.77
2024-02-19T11:39:44.928Z,9.70
2024-02-19T11:42:16.833Z,9.87
2024-02-19T11:44:44.788Z,9.86
2024-02-19T11:47:11.968Z,9.74
2024-02-19T11:49:39.684Z,9.64
2024-02-19T11:52:11.824Z,9.48
2024-02-19T11:54:40.075Z,9.52
2024-02-19T11:57:09.011Z,9.39
2024-02-19T11:59:37.207Z,9.36
2024-02-19T12:02:07.185Z,9.12
2024-02-19T12:04:39.417Z,9.06
2024-02-19T12:07:07.122Z,9.13
2024-02-19T12:09:33.927Z,8.95
2024-02-19T12:12:00.846Z,9.02
2024-02-19T12:14:27.958Z,9.05
2024-02-19T12:16:56.697Z,8.95
2024-02-19T12:19:26.016Z,9.02
2024-02-19T12:21:53.803Z,9.03
2024-02-19T12:24:20.829Z,8.95
2024-02-19T12:26:47.548Z,9.04
2024-02-19T12:29:14.708Z,9.07
2024-02-19T12:31:41.748Z,9.00
2024-02-19T12:34:10.219Z,9.19
2024-02-19T12:36:38.115Z,9.33
2024-02-19T12:39:11.070Z,9.31
2024-02-19T12:41:38.120Z,9.41
2024-02-19T12:44:05.893Z,9.42
2024-02-19T12:46:34.787Z,9.46
2024-02-19T12:49:02.670Z,9.62
2024-02-19T12:51:37.423Z,9.62
2024-02-19T12:54:06.754Z,9.61
2024-02-19T12:56:33.507Z,9.61
2024-02-19T12:59:03.254Z,9.61
2024-02-19T13:01:32.960Z,9.38
2024-02-19T13:04:01.745Z,9.34
2024-02-19T13:06:29.286Z,9.38
2024-02-19T13:08:58.152Z,9.23
2024-02-19T13:11:29.665Z,9.06
2024-02-19T13:13:58.383Z,9.06
2024-02-19T13:16:27.861Z,9.12
2024-02-19T13:18:54.689Z,9.12
2024-02-19T13:21:21.822Z,9.19
2024-02-19T13:23:48.961Z,9.31
2024-02-19T13:26:15.971Z,9.26
2024-02-19T13:28:43.279Z,9.14
2024-02-19T13:31:10.456Z,9.26
2024-02-19T13:33:37.801Z,9.22
2024-02-19T13:36:05.203Z,9.27
2024-02-19T13:38:32.316Z,9.39
2024-02-19T13:41:04.390Z,9.43
2024-02-19T13:43:34.068Z,9.33
2024-02-19T13:46:05.127Z,9.28
2024-02-19T13:48:33.418Z,9.28
2024-02-19T13:51:02.216Z,9.18
2024-02-19T13:53:30.469Z,9.16
2024-02-19T13:55:59.039Z,9.16
2024-02-19T13:58:27.354Z,9.22
2024-02-19T14:00:55.655Z,9.24
2024-02-19T14:03:23.232Z,9.37
2024-02-19T14:05:50.639Z,9.33
2024-02-19T14:08:20.025Z,9.34
2024-02-19T14:10:49.508Z,9.41
2024-02-19T14:13:17.413Z,9.26
2024-02-19T14:15:44.920Z,9.30
2024-02-19T14:18:12.036Z,9.17
2024-02-19T14:20:39.159Z,9.45
2024-02-19T14:23:08.371Z,9.53
2024-02-19T14:25:37.213Z,9.45
2024-02-19T14:28:05.789Z,9.24
2024-02-19T14:30:33.049Z,9.06
2024-02-19T14:33:02.863Z,8.95
2024-02-19T14:35:29.706Z,9.01
2024-02-19T14:37:56.933Z,9.05
2024-02-19T14:40:24.711Z,9.21
2024-02-19T14:42:52.100Z,9.19
2024-02-19T14:45:19.311Z,9.09
2024-02-19T14:47:50.075Z,9.12
2024-02-19T14:50:17.326Z,8.97
2024-02-19T14:52:44.892Z,9.10
2024-02-19T14:55:13.500Z,8.92
2024-02-19T14:57:41.307Z,8.96
2024-02-19T15:00:14.193Z,8.85
2024-02-19T15:02:42.069Z,8.73
2024-02-19T15:05:09.957Z,8.59
2024-02-19T15:07:37.466Z,8.45
2024-02-19T15:10:05.071Z,8.40
2024-02-19T15:12:31.884Z,8.29
2024-02-19T15:14:59.656Z,8.24
2024-02-19T15:17:27.186Z,8.16
2024-02-19T15:19:54.495Z,8.20
2024-02-19T15:22:21.461Z,8.11
2024-02-19T15:24:48.622Z,8.09
2024-02-19T15:27:15.533Z,8.12
2024-02-19T15:29:42.608Z,8.10
2024-02-19T15:32:11.378Z,8.13
2024-02-19T15:34:38.642Z,8.12
2024-02-19T15:37:09.634Z,8.17
2024-02-19T15:39:40.498Z,8.25
2024-02-19T15:42:11.334Z,8.25
2024-02-19T15:44:44.955Z,8.27
2024-02-19T15:47:15.128Z,8.24
2024-02-19T15:49:51.648Z,8.18
2024-02-19T15:52:26.969Z,8.16
2024-02-19T15:55:00.454Z,8.17
2024-02-19T15:57:33.051Z,8.17
2024-02-19T16:00:02.239Z,8.14
2024-02-19T16:02:43.274Z,8.17
2024-02-19T16:05:13.658Z,8.23
2024-02-19T16:07:44.881Z,8.12
2024-02-19T16:10:19.772Z,8.21
2024-02-19T16:12:56.529Z,8.21
2024-02-19T16:15:32.103Z,8.17
2024-02-19T16:18:09.386Z,8.17
2024-02-19T16:20:41.204Z,8.11
2024-02-19T16:23:14.541Z,7.95
2024-02-19T16:25:44.221Z,8.03
2024-02-19T16:28:16.907Z,7.92
2024-02-19T16:30:49.600Z,7.94
2024-02-19T16:33:26.677Z,7.82
2024-02-19T16:35:55.071Z,7.68
2024-02-19T16:38:29.303Z,7.85
2024-02-19T16:41:01.810Z,7.82
2024-02-19T16:43:35.093Z,7.80
2024-02-19T16:46:05.719Z,7.81
2024-02-19T16:48:39.537Z,7.73
2024-02-19T16:51:07.084Z,7.50
2024-02-19T16:53:36.930Z,7.71
2024-02-19T16:56:04.803Z,7.72
2024-02-19T16:58:37.916Z,7.76
2024-02-19T17:01:07.248Z,7.69
2024-02-19T17:03:41.519Z,7.78
2024-02-19T17:06:14.367Z,7.79
2024-02-19T17:08:49.282Z,7.76
2024-02-19T17:11:22.082Z,7.67
2024-02-19T17:13:54.757Z,7.70
2024-02-19T17:16:23.836Z,7.62
2024-02-19T17:18:54.087Z,7.60
2024-02-19T17:21:24.232Z,7.59
2024-02-19T17:23:51.625Z,7.44
2024-02-19T17:26:19.467Z,7.38
2024-02-19T17:28:48.658Z,7.51
2024-02-19T17:31:23.213Z,7.50
2024-02-19T17:33:52.958Z,7.36
2024-02-19T17:36:25.491Z,7.36
2024-02-19T17:38:55.073Z,7.35
2024-02-19T17:41:24.600Z,7.42
2024-02-19T17:43:52.589Z,7.42
2024-02-19T17:46:19.918Z,7.47
2024-02-19T17:48:50.480Z,7.55
2024-02-19T17:51:27.711Z,7.55
2024-02-19T17:53:59.727Z,7.59
2024-02-19T17:56:32.251Z,7.64
2024-02-19T17:59:00.549Z,7.58
2024-02-19T18:01:28.921Z,7.66
2024-02-19T18:04:00.434Z,7.67
2024-02-19T18:06:27.450Z,7.68
2024-02-19T18:08:58.203Z,7.73
2024-02-19T18:11:30.143Z,7.72
2024-02-19T18:14:00.071Z,7.72
2024-02-19T18:16:29.273Z,7.76
2024-02-19T18:19:07.009Z,7.76
2024-02-19T18:21:35.759Z,7.67
2024-02-19T18:24:05.675Z,7.76
2024-02-19T18:26:34.998Z,7.74
2024-02-19T18:29:05.110Z,7.64
2024-02-19T18:31:37.978Z,7.68
2024-02-19T18:34:08.254Z,7.50
2024-02-19T18:36:40.724Z,7.65
2024-02-19T18:39:11.197Z,7.60
2024-02-19T18:41:45.376Z,7.61
2024-02-19T18:44:24.598Z,7.58
2024-02-19T18:47:04.447Z,7.58
2024-02-19T18:49:35.504Z,7.45
2024-02-19T18:52:07.451Z,7.54
2024-02-19T18:54:46.996Z,7.46
2024-02-19T18:57:17.737Z,7.29
2024-02-19T18:59:47.353Z,7.36
2024-02-19T19:02:18.677Z,7.30
2024-02-19T19:04:49.775Z,7.34
2024-02-19T19:07:26.186Z,7.34
2024-02-19T19:10:04.300Z,7.37
2024-02-19T19:12:34.538Z,7.36
2024-02-19T19:15:10.417Z,7.39
2024-02-19T19:17:40.337Z,7.41
2024-02-19T19:20:13.008Z,7.43
2024-02-19T19:22:44.628Z,7.37
2024-02-19T19:25:19.427Z,7.37
2024-02-19T19:27:49.598Z,7.50
2024-02-19T19:30:21.068Z,7.49
2024-02-19T19:32:52.985Z,7.48
2024-02-19T19:35:26.162Z,7.51
2024-02-19T19:37:57.897Z,7.53
2024-02-19T19:40:28.114Z,7.55
2024-02-19T19:42:58.806Z,7.54
2024-02-19T19:45:31.559Z,7.54
2024-02-19T19:50:41.105Z,7.51
2024-02-19T19:53:12.296Z,7.65
2024-02-19T19:55:43.176Z,7.58
2024-02-19T19:58:17.042Z,7.54
2024-02-19T20:00:45.903Z,7.53
2024-02-19T20:03:12.708Z,7.51
2024-02-19T20:05:39.822Z,7.48
2024-02-19T20:08:07.392Z,7.47
2024-02-19T20:10:34.684Z,7.41
2024-02-19T20:13:01.685Z,7.30
2024-02-19T20:15:28.440Z,7.39
2024-02-19T20:17:55.299Z,7.42
2024-02-19T20:20:22.182Z,7.43
2024-02-19T20:22:49.172Z,7.41
2024-02-19T20:25:19.219Z,7.44
2024-02-19T20:27:46.210Z,7.35
2024-02-19T20:30:20.011Z,7.30
2024-02-19T20:32:50.451Z,7.38
2024-02-19T20:35:20.568Z,7.36
2024-02-19T20:37:49.474Z,7.32
2024-02-19T20:40:22.873Z,7.37
2024-02-19T20:43:01.140Z,7.45
2024-02-19T20:45:29.650Z,7.43
2024-02-19T20:48:02.683Z,7.43
2024-02-19T20:50:34.338Z,7.39
2024-02-19T20:53:03.504Z,7.45
2024-02-19T20:55:35.562Z,7.39
2024-02-19T20:58:06.871Z,7.27
2024-02-19T21:00:40.896Z,7.40
2024-02-19T21:03:15.778Z,7.39
2024-02-19T21:05:47.261Z,7.38
2024-02-19T21:08:30.467Z,7.38
2024-02-19T21:11:04.779Z,7.38
2024-02-19T21:13:38.746Z,7.35
2024-02-19T21:16:11.524Z,7.38
2024-02-19T21:18:47.945Z,7.33
2024-02-19T21:21:34.437Z,7.35
2024-02-19T21:24:09.445Z,7.37
2024-02-19T21:26:42.213Z,7.40
2024-02-19T21:29:12.421Z,7.38
2024-02-19T21:31:49.570Z,7.43
2024-02-19T21:34:29.691Z,7.43
2024-02-19T21:37:19.546Z,7.43
2024-02-19T21:39:55.566Z,7.42
2024-02-19T21:42:32.185Z,7.44
2024-02-19T21:45:08.192Z,7.35
2024-02-19T21:47:43.235Z,7.47
2024-02-19T21:50:18.160Z,7.46
2024-02-19T21:53:27.110Z,7.51
2024-02-19T21:55:56.956Z,7.56
2024-02-19T21:58:28.977Z,7.57
2024-02-19T22:00:58.469Z,7.57
2024-02-19T22:03:25.808Z,7.55
2024-02-19T22:05:56.050Z,7.50
2024-02-19T22:08:25.319Z,7.48
2024-02-19T22:10:56.297Z,7.50
2024-02-19T22:13:35.721Z,7.45
2024-02-19T22:16:06.187Z,7.44
2024-02-19T22:18:37.539Z,7.39
2024-02-19T22:21:06.681Z,7.42
2024-02-19T22:23:35.387Z,7.27
2024-02-19T22:26:09.050Z,7.26
2024-02-19T22:28:38.835Z,7.27
2024-02-19T22:31:10.649Z,7.34
2024-02-19T22:33:47.513Z,7.27
2024-02-19T22:36:23.413Z,7.17
2024-02-19T22:38:50.613Z,7.00
2024-02-19T22:41:17.262Z,7.01
2024-02-19T22:43:43.952Z,6.97
2024-02-19T22:46:10.650Z,6.91
2024-02-19T22:48:37.449Z,6.98
2024-02-19T22:51:04.319Z,6.90
2024-02-19T22:53:31.321Z,6.83
2024-02-19T22:55:58.031Z,6.76
2024-02-19T22:58:31.719Z,6.73
2024-02-19T23:01:01.621Z,6.66
2024-02-19T23:03:28.875Z,6.47
2024-02-19T23:05:56.328Z,6.68
2024-02-19T23:08:23.673Z,6.58
2024-02-19T23:10:52.471Z,6.58
2024-02-19T23:13:19.974Z,6.63
2024-02-19T23:15:46.921Z,6.59
2024-02-19T23:18:13.999Z,6.58
2024-02-19T23:20:40.964Z,6.54
2024-02-19T23:23:08.450Z,6.54
2024-02-19T23:25:35.402Z,6.62
2024-02-19T23:28:02.170Z,6.64
2024-02-19T23:30:30.373Z,6.65
2024-02-19T23:32:57.229Z,6.66
2024-02-19T23:35:24.944Z,6.75
2024-02-19T23:37:52.592Z,6.74
2024-02-19T23:40:19.486Z,6.75
2024-02-19T23:42:46.980Z,6.80
2024-02-19T23:45:14.287Z,6.79
2024-02-19T23:47:41.389Z,6.78
2024-02-19T23:50:09.584Z,6.81
2024-02-19T23:52:37.062Z,6.79
2024-02-19T23:55:04.542Z,6.72
2024-02-19T23:57:31.720Z,6.92
2024-02-19T23:59:58.594Z,7.01
